createdAt,value
2023-01-01T08:00:46.567Z,95.69
2023-01-01T08:06:22.720Z,95.28
2023-01-01T08:59:16.240Z,90.20
2023-01-01T09:04:21.109Z,88.71
2023-01-01T09:09:31.093Z,88.42
2023-01-01T09:14:35.568Z,88.14
2023-01-01T09:19:41.313Z,87.83
2023-01-01T09:24:44.583Z,87.00
2023-01-01T09:30:13.946Z,87.06
2023-01-01T09:36:39.751Z,86.56
2023-01-01T09:42:01.464Z,85.72
2023-01-01T09:47:10.722Z,85.27
2023-01-01T09:52:16.497Z,84.19
2023-01-01T09:57:23.351Z,84.10
2023-01-01T10:03:17.620Z,84.04
2023-01-01T10:08:31.533Z,83.71
2023-01-01T10:13:39.511Z,83.04
2023-01-01T10:18:44.054Z,83.30
2023-01-01T10:23:49.659Z,81.67
2023-01-01T10:29:01.671Z,81.51
2023-01-01T10:34:26.133Z,80.62
2023-01-01T10:39:29.751Z,81.27
2023-01-01T10:44:36.722Z,80.57
2023-01-01T10:49:55.450Z,79.21
2023-01-01T10:55:00.099Z,78.70
2023-01-01T11:00:29.823Z,77.83
2023-01-01T11:05:33.349Z,77.64
2023-01-01T11:10:42.831Z,77.51
2023-01-01T11:16:22.661Z,76.75
2023-01-01T12:10:10.823Z,75.83
2023-01-01T12:31:19.224Z,77.68
2023-01-01T12:43:45.833Z,79.08
2023-01-01T12:49:59.413Z,78.90
2023-01-01T14:59:22.084Z,91.29
2023-01-01T15:04:29.937Z,91.24
2023-01-01T17:06:51.698Z,100.00
2023-01-01T17:11:55.097Z,100.00
2023-01-01T17:34:46.590Z,100.00
2023-01-01T17:40:00.906Z,100.00
2023-01-01T18:27:44.202Z,100.00
2023-01-01T19:29:03.465Z,100.00
2023-01-01T19:46:47.012Z,100.00
